createdAt,value
2023-05-15T00:00:14.579Z,46.51
2023-05-15T00:00:48.189Z,46.54
2023-05-15T00:01:23.399Z,46.58
2023-05-15T00:01:55.707Z,46.84
2023-05-15T00:02:28.013Z,46.78
2023-05-15T00:03:03.121Z,46.34
2023-05-15T00:03:35.361Z,45.88
2023-05-15T00:04:07.723Z,46.07
2023-05-15T00:04:42.564Z,46.15
2023-05-15T00:05:15.005Z,46.22
2023-05-15T00:05:47.244Z,46.39
2023-05-15T00:06:20.181Z,46.54
2023-05-15T00:06:55.019Z,46.76
2023-05-15T00:07:27.246Z,46.91
2023-05-15T00:07:59.444Z,46.79
2023-05-15T00:08:34.577Z,46.52
2023-05-15T00:09:06.702Z,46.35
2023-05-15T00:09:39.253Z,46.57
2023-05-15T00:10:13.987Z,46.42
2023-05-15T00:10:57.572Z,46.87
2023-05-15T00:11:35.929Z,46.54
2023-05-15T00:12:11.433Z,46.61
2023-05-15T00:12:43.698Z,46.81
2023-05-15T00:13:17.355Z,46.67
2023-05-15T00:13:52.411Z,46.72
2023-05-15T00:14:25.467Z,46.79
2023-05-15T00:14:57.621Z,46.69
2023-05-15T00:15:32.399Z,46.39
2023-05-15T00:16:05.003Z,46.49
2023-05-15T00:16:37.254Z,46.64
2023-05-15T00:17:12.759Z,46.57
2023-05-15T00:17:44.948Z,46.23
2023-05-15T00:18:17.186Z,46.32
2023-05-15T00:18:49.395Z,46.40
2023-05-15T00:19:24.185Z,46.40
2023-05-15T00:19:57.962Z,46.49
2023-05-15T00:20:30.122Z,46.90
2023-05-15T00:21:05.053Z,46.51
2023-05-15T00:21:37.827Z,46.95
2023-05-15T00:22:10.093Z,46.67
2023-05-15T00:22:44.848Z,46.22
2023-05-15T00:23:17.029Z,46.38
2023-05-15T00:23:49.264Z,45.94
2023-05-15T00:24:24.880Z,45.43
2023-05-15T00:24:57.292Z,45.17
2023-05-15T00:25:29.650Z,45.01
2023-05-15T00:26:01.796Z,44.75
2023-05-15T00:26:39.607Z,44.89
2023-05-15T00:27:11.746Z,44.80
2023-05-15T00:27:43.878Z,44.59
2023-05-15T00:28:18.618Z,44.23
2023-05-15T00:28:50.982Z,44.39
2023-05-15T00:29:23.873Z,43.68
2023-05-15T00:29:58.609Z,43.95
2023-05-15T00:30:30.796Z,43.97
2023-05-15T00:31:03.016Z,44.72
2023-05-15T00:31:35.275Z,44.38
2023-05-15T00:32:10.823Z,44.46
2023-05-15T00:32:43.193Z,44.10
2023-05-15T00:33:15.857Z,44.21
2023-05-15T00:33:50.981Z,44.58
2023-05-15T00:34:23.272Z,44.77
2023-05-15T00:34:55.505Z,44.44
2023-05-15T00:35:28.411Z,44.16
2023-05-15T00:36:03.153Z,44.07
2023-05-15T00:36:35.771Z,43.83
2023-05-15T00:37:08.738Z,44.40
2023-05-15T00:37:43.623Z,44.20
2023-05-15T00:38:16.346Z,43.84
2023-05-15T00:38:48.553Z,43.84
2023-05-15T00:39:23.248Z,43.66
2023-05-15T00:39:55.516Z,44.33
2023-05-15T00:40:29.397Z,44.37
2023-05-15T00:41:04.466Z,44.23
2023-05-15T00:41:41.300Z,44.19
2023-05-15T00:42:13.753Z,44.76
2023-05-15T00:42:49.417Z,44.86
2023-05-15T00:43:22.974Z,44.68
2023-05-15T00:43:56.381Z,45.01
2023-05-15T00:44:33.580Z,45.24
2023-05-15T00:45:09.504Z,44.94
2023-05-15T00:45:42.966Z,45.36
2023-05-15T00:46:19.171Z,45.16
2023-05-15T00:46:53.505Z,45.56
2023-05-15T00:47:27.244Z,45.44
2023-05-15T00:48:03.647Z,45.00
2023-05-15T00:48:36.592Z,44.82
2023-05-15T00:49:13.757Z,44.94
2023-05-15T00:49:49.927Z,45.09
2023-05-15T00:50:24.984Z,44.73
2023-05-15T00:51:00.638Z,44.76
2023-05-15T00:51:33.204Z,45.02
2023-05-15T00:52:08.608Z,45.13
2023-05-15T00:52:43.464Z,45.29
2023-05-15T00:53:15.920Z,45.48
2023-05-15T00:53:48.900Z,45.33
2023-05-15T00:54:23.646Z,45.73
2023-05-15T00:54:55.844Z,46.03
2023-05-15T00:55:29.677Z,45.20
2023-05-15T00:56:06.985Z,44.93
2023-05-15T00:56:43.956Z,43.88
2023-05-15T00:57:17.736Z,44.27
2023-05-15T00:57:53.352Z,45.08
2023-05-15T00:58:27.810Z,46.13
2023-05-15T00:59:02.833Z,46.01
2023-05-15T00:59:37.867Z,46.14
2023-05-15T01:00:11.069Z,45.90
2023-05-15T01:00:43.879Z,46.29
2023-05-15T01:01:19.885Z,46.44
2023-05-15T01:01:52.184Z,46.13
2023-05-15T01:02:24.495Z,46.62
2023-05-15T01:02:59.408Z,47.23
2023-05-15T01:03:33.026Z,47.23
2023-05-15T01:04:06.002Z,47.76
2023-05-15T01:04:40.773Z,48.33
2023-05-15T01:05:13.697Z,48.60
2023-05-15T01:05:46.528Z,49.26
2023-05-15T01:06:21.388Z,49.69
2023-05-15T01:06:54.222Z,49.78
2023-05-15T01:07:27.153Z,49.97
2023-05-15T01:08:09.683Z,49.96
2023-05-15T01:08:46.106Z,50.19
2023-05-15T01:09:19.668Z,50.64
2023-05-15T01:09:56.148Z,51.11
2023-05-15T01:10:28.783Z,51.36
2023-05-15T01:11:03.202Z,51.39
2023-05-15T01:11:40.765Z,51.51
2023-05-15T01:12:16.236Z,52.14
2023-05-15T01:12:53.459Z,52.33
2023-05-15T01:13:28.284Z,52.36
2023-05-15T01:14:00.666Z,52.97
2023-05-15T01:14:32.808Z,53.02
2023-05-15T01:15:08.669Z,53.24
2023-05-15T01:15:41.667Z,53.25
2023-05-15T01:16:16.374Z,52.13
2023-05-15T01:16:48.618Z,50.62
2023-05-15T01:17:20.734Z,49.39
2023-05-15T01:17:55.577Z,49.05
2023-05-15T01:18:32.640Z,49.22
2023-05-15T01:19:05.697Z,48.58
2023-05-15T01:19:41.229Z,48.02
2023-05-15T01:20:18.556Z,47.78
2023-05-15T01:21:09.762Z,48.28
2023-05-15T01:22:25.761Z,48.44
2023-05-15T01:23:12.533Z,49.12
2023-05-15T01:23:58.584Z,49.27
2023-05-15T01:24:50.281Z,49.07
2023-05-15T01:26:06.437Z,48.82
2023-05-15T01:27:08.258Z,47.92
2023-05-15T01:27:45.072Z,48.36
2023-05-15T01:28:25.168Z,47.26
2023-05-15T01:29:01.731Z,46.63
2023-05-15T01:29:41.605Z,46.22
2023-05-15T01:30:22.036Z,45.73
2023-05-15T01:30:57.761Z,45.28
2023-05-15T01:31:32.181Z,45.27
2023-05-15T01:32:12.017Z,45.12
2023-05-15T01:32:51.309Z,45.27
2023-05-15T01:33:31.631Z,45.20
2023-05-15T01:34:07.447Z,44.61
2023-05-15T01:34:49.084Z,44.48
2023-05-15T01:35:29.420Z,44.79
2023-05-15T01:36:06.185Z,44.25
2023-05-15T01:36:43.269Z,44.02
2023-05-15T01:37:24.226Z,44.23
2023-05-15T01:38:03.386Z,44.21
2023-05-15T01:38:39.386Z,44.45
2023-05-15T01:39:14.773Z,44.24
2023-05-15T01:39:50.160Z,43.96
2023-05-15T01:40:26.494Z,44.67
2023-05-15T01:41:03.369Z,45.46
2023-05-15T01:41:44.461Z,46.07
2023-05-15T01:42:24.033Z,46.64
2023-05-15T01:43:00.924Z,46.30
2023-05-15T01:43:38.194Z,46.06
2023-05-15T01:44:15.755Z,45.83
2023-05-15T01:44:53.781Z,45.49
2023-05-15T01:45:31.049Z,45.76
2023-05-15T01:46:04.209Z,46.99
2023-05-15T01:46:39.705Z,47.97
2023-05-15T01:47:17.841Z,48.19
2023-05-15T01:47:53.489Z,48.54
2023-05-15T01:48:27.839Z,48.65
2023-05-15T01:49:06.014Z,48.58
2023-05-15T01:49:38.885Z,48.28
2023-05-15T01:50:15.652Z,48.58
2023-05-15T01:50:51.464Z,49.30
2023-05-15T01:51:28.751Z,49.41
2023-05-15T01:52:07.108Z,49.34
2023-05-15T01:52:44.129Z,49.29
2023-05-15T01:53:21.713Z,49.32
2023-05-15T01:53:54.758Z,49.93
2023-05-15T01:54:29.266Z,50.61
2023-05-15T01:55:03.266Z,50.81
2023-05-15T01:55:38.568Z,50.79
2023-05-15T01:56:15.625Z,50.82
2023-05-15T01:56:48.234Z,50.26
2023-05-15T01:57:27.459Z,50.23
2023-05-15T01:58:01.959Z,50.03
2023-05-15T01:58:34.657Z,49.88
2023-05-15T01:59:11.378Z,50.10
2023-05-15T01:59:45.079Z,50.08
2023-05-15T02:00:18.237Z,50.23
2023-05-15T02:00:54.113Z,50.36
2023-05-15T02:01:27.934Z,50.21
2023-05-15T02:02:01.185Z,50.69
2023-05-15T02:02:33.838Z,50.33
2023-05-15T02:03:09.891Z,50.66
2023-05-15T02:03:42.770Z,50.63
2023-05-15T02:04:15.730Z,50.96
2023-05-15T02:04:52.158Z,51.57
2023-05-15T02:05:26.898Z,51.08
2023-05-15T02:06:02.246Z,51.11
2023-05-15T02:06:34.603Z,51.21
2023-05-15T02:07:07.566Z,51.12
2023-05-15T02:07:43.717Z,50.64
2023-05-15T02:08:16.933Z,50.99
2023-05-15T02:08:50.151Z,51.08
2023-05-15T02:09:26.659Z,50.78
2023-05-15T02:10:00.181Z,50.85
2023-05-15T02:10:33.442Z,50.64
2023-05-15T02:11:09.128Z,50.12
2023-05-15T02:11:42.081Z,50.18
2023-05-15T02:12:15.443Z,49.98
2023-05-15T02:12:53.057Z,49.54
2023-05-15T02:13:27.707Z,49.64
2023-05-15T02:14:01.652Z,49.45
2023-05-15T02:14:37.854Z,49.34
2023-05-15T02:15:11.046Z,49.03
2023-05-15T02:15:43.729Z,49.10
2023-05-15T02:16:18.462Z,49.21
2023-05-15T02:16:51.332Z,49.88
2023-05-15T02:17:24.103Z,49.69
2023-05-15T02:17:58.996Z,49.67
2023-05-15T02:18:31.221Z,49.56
2023-05-15T02:19:03.634Z,49.99
2023-05-15T02:19:38.641Z,49.87
2023-05-15T02:20:11.709Z,50.10
2023-05-15T02:20:44.544Z,49.76
2023-05-15T02:21:19.318Z,50.22
2023-05-15T02:21:51.521Z,49.58
2023-05-15T02:22:23.705Z,49.64
2023-05-15T02:22:58.431Z,49.81
2023-05-15T02:23:30.612Z,50.21
2023-05-15T02:24:02.808Z,49.92
2023-05-15T02:24:34.956Z,49.87
2023-05-15T02:25:11.741Z,50.14
2023-05-15T02:25:50.440Z,49.68
2023-05-15T02:26:31.717Z,49.34
2023-05-15T02:27:14.694Z,49.04
2023-05-15T02:27:57.863Z,49.21
2023-05-15T02:28:43.224Z,49.11
2023-05-15T02:29:20.916Z,49.91
2023-05-15T02:30:04.549Z,49.71
2023-05-15T02:30:46.025Z,49.86
2023-05-15T02:31:25.246Z,49.63
2023-05-15T02:32:04.202Z,48.86
2023-05-15T02:32:50.155Z,48.77
2023-05-15T02:33:32.202Z,48.50
2023-05-15T02:34:12.645Z,48.50
2023-05-15T02:34:53.187Z,48.48
2023-05-15T02:35:36.023Z,48.58
2023-05-15T02:36:11.550Z,48.18
2023-05-15T02:36:50.399Z,47.92
2023-05-15T02:37:27.602Z,47.52
2023-05-15T02:38:03.251Z,47.20
2023-05-15T02:38:41.923Z,46.68
2023-05-15T02:39:16.464Z,46.34
2023-05-15T02:39:54.031Z,46.37
2023-05-15T02:40:30.862Z,45.97
2023-05-15T02:41:05.568Z,45.94
2023-05-15T02:41:39.421Z,45.95
2023-05-15T02:42:15.890Z,45.73
2023-05-15T02:42:52.856Z,45.74
2023-05-15T02:43:27.358Z,45.67
2023-05-15T02:44:03.457Z,45.68
2023-05-15T02:44:37.601Z,45.65
2023-05-15T02:45:11.659Z,45.41
2023-05-15T02:45:48.838Z,45.33
2023-05-15T02:46:25.519Z,45.63
2023-05-15T02:46:59.861Z,45.03
2023-05-15T02:47:36.427Z,45.02
2023-05-15T02:48:09.457Z,45.08
2023-05-15T02:48:43.719Z,44.94
2023-05-15T02:49:18.817Z,44.94
2023-05-15T02:49:52.397Z,45.45
2023-05-15T02:50:25.536Z,45.30
2023-05-15T02:51:00.526Z,45.52
2023-05-15T02:51:32.895Z,45.29
2023-05-15T02:52:06.042Z,45.32
2023-05-15T02:52:41.096Z,45.09
2023-05-15T02:53:14.682Z,45.04
2023-05-15T02:53:47.044Z,44.68
2023-05-15T02:54:22.416Z,44.72
2023-05-15T02:54:54.603Z,44.38
2023-05-15T02:55:27.119Z,44.22
2023-05-15T02:55:59.445Z,44.08
2023-05-15T02:56:34.244Z,44.13
2023-05-15T02:57:08.183Z,43.48
2023-05-15T02:57:40.538Z,43.91
2023-05-15T02:58:18.067Z,43.49
2023-05-15T02:58:50.406Z,43.76
2023-05-15T02:59:23.125Z,43.30
2023-05-15T02:59:59.016Z,43.73
2023-05-15T03:00:31.217Z,43.33
2023-05-15T03:01:04.768Z,43.37
2023-05-15T03:01:39.698Z,43.69
2023-05-15T03:02:12.034Z,43.78
2023-05-15T03:02:44.236Z,43.75
2023-05-15T03:03:19.014Z,42.97
2023-05-15T03:03:51.298Z,42.75
2023-05-15T03:04:23.823Z,42.71
2023-05-15T03:04:58.725Z,42.58
2023-05-15T03:05:30.882Z,42.85
2023-05-15T03:06:03.106Z,42.88
2023-05-15T03:06:37.925Z,43.06
2023-05-15T03:07:10.120Z,43.22
2023-05-15T03:07:42.493Z,42.58
2023-05-15T03:08:17.935Z,42.02
2023-05-15T03:08:50.078Z,41.89
2023-05-15T03:09:22.209Z,41.71
2023-05-15T03:09:56.913Z,41.94
2023-05-15T03:10:29.222Z,41.87
2023-05-15T03:11:01.480Z,41.60
2023-05-15T03:11:36.344Z,41.79
2023-05-15T03:12:10.234Z,42.12
2023-05-15T03:12:42.391Z,42.12
2023-05-15T03:13:19.775Z,41.66
2023-05-15T03:13:51.910Z,41.61
2023-05-15T03:14:24.257Z,41.55
2023-05-15T03:14:59.174Z,42.02
2023-05-15T03:15:31.501Z,41.55
2023-05-15T03:16:03.873Z,41.38
2023-05-15T03:16:39.286Z,41.68
2023-05-15T03:17:11.645Z,42.09
2023-05-15T03:17:44.004Z,41.91
2023-05-15T03:18:18.620Z,42.01
2023-05-15T03:18:53.765Z,42.15
2023-05-15T03:19:26.080Z,41.92
2023-05-15T03:19:58.372Z,42.20
2023-05-15T03:20:33.162Z,41.83
2023-05-15T03:21:05.930Z,42.20
2023-05-15T03:21:38.236Z,42.06
2023-05-15T03:22:13.072Z,42.17
2023-05-15T03:22:45.232Z,42.19
2023-05-15T03:23:17.362Z,41.89
2023-05-15T03:23:52.155Z,42.08
2023-05-15T03:24:24.427Z,42.04
2023-05-15T03:24:56.562Z,41.82
2023-05-15T03:25:31.545Z,41.59
2023-05-15T03:26:03.861Z,41.55
2023-05-15T03:26:36.051Z,41.69
2023-05-15T03:27:08.342Z,41.38
2023-05-15T03:27:43.227Z,41.49
2023-05-15T03:28:17.926Z,41.70
2023-05-15T03:28:50.086Z,41.21
2023-05-15T03:29:24.836Z,41.15
2023-05-15T03:29:57.312Z,41.33
2023-05-15T03:30:29.451Z,41.35
2023-05-15T03:31:05.099Z,40.98
2023-05-15T03:31:37.444Z,41.21
2023-05-15T03:32:09.678Z,40.82
2023-05-15T03:32:44.536Z,40.82
2023-05-15T03:33:16.726Z,40.65
2023-05-15T03:33:50.177Z,40.85
2023-05-15T03:34:24.908Z,40.82
2023-05-15T03:34:57.036Z,41.07
2023-05-15T03:35:29.238Z,41.37
2023-05-15T03:36:04.202Z,41.69
2023-05-15T03:36:38.902Z,42.70
2023-05-15T03:37:11.129Z,42.78
2023-05-15T03:37:43.342Z,43.60
2023-05-15T03:38:19.211Z,43.51
2023-05-15T03:38:51.476Z,43.68
2023-05-15T03:39:23.620Z,43.61
2023-05-15T03:39:58.356Z,43.52
2023-05-15T03:40:30.497Z,43.55
2023-05-15T03:41:03.097Z,43.38
2023-05-15T03:41:40.274Z,43.58
2023-05-15T03:42:12.469Z,44.38
2023-05-15T03:42:46.333Z,44.38
2023-05-15T03:43:23.608Z,44.10
2023-05-15T03:43:55.790Z,44.12
2023-05-15T03:44:27.957Z,44.04
2023-05-15T03:45:02.882Z,43.61
2023-05-15T03:45:35.371Z,42.97
2023-05-15T03:46:07.624Z,42.79
2023-05-15T03:46:42.539Z,42.70
2023-05-15T03:47:16.512Z,42.23
2023-05-15T03:47:48.790Z,42.06
2023-05-15T03:48:23.572Z,41.75
2023-05-15T03:48:56.181Z,42.05
2023-05-15T03:49:28.460Z,42.22
2023-05-15T03:50:03.488Z,42.61
2023-05-15T03:50:39.577Z,42.94
2023-05-15T03:51:11.835Z,43.16
2023-05-15T03:51:46.579Z,43.08
2023-05-15T03:52:19.344Z,42.92
2023-05-15T03:52:51.667Z,43.00
2023-05-15T03:53:26.494Z,43.33
2023-05-15T03:53:58.701Z,43.44
2023-05-15T03:54:30.976Z,43.63
2023-05-15T03:55:06.226Z,42.78
2023-05-15T03:55:38.490Z,42.51
2023-05-15T03:56:11.053Z,42.05
2023-05-15T03:56:45.780Z,42.84
2023-05-15T03:57:17.930Z,42.33
2023-05-15T03:57:51.015Z,41.80
2023-05-15T03:58:28.342Z,41.56
2023-05-15T03:59:00.522Z,41.46
2023-05-15T03:59:32.701Z,42.29
2023-05-15T04:00:11.211Z,43.10
2023-05-15T04:00:46.150Z,43.39
2023-05-15T04:01:18.330Z,43.85
2023-05-15T04:02:04.213Z,44.29
2023-05-15T04:02:38.248Z,44.06
2023-05-15T04:03:13.289Z,44.35
2023-05-15T04:03:45.607Z,44.90
2023-05-15T04:04:17.730Z,44.74
2023-05-15T04:04:52.827Z,44.28
2023-05-15T04:05:25.143Z,44.53
2023-05-15T04:05:57.449Z,44.73
2023-05-15T04:06:32.249Z,44.91
2023-05-15T04:07:05.034Z,45.55
2023-05-15T04:07:37.933Z,45.96
2023-05-15T04:08:13.054Z,46.07
2023-05-15T04:08:45.192Z,45.77
2023-05-15T04:09:17.614Z,45.93
2023-05-15T04:09:52.325Z,45.79
2023-05-15T04:10:24.760Z,46.26
2023-05-15T04:10:57.256Z,45.87
2023-05-15T04:11:32.110Z,45.58
2023-05-15T04:12:05.144Z,44.95
2023-05-15T04:12:37.578Z,45.09
2023-05-15T04:13:12.310Z,45.08
2023-05-15T04:13:47.122Z,45.67
2023-05-15T04:14:19.257Z,45.54
2023-05-15T04:14:54.026Z,46.56
2023-05-15T04:15:27.374Z,46.77
2023-05-15T04:16:00.169Z,46.71
2023-05-15T04:16:35.079Z,46.82
2023-05-15T04:17:07.309Z,46.98
2023-05-15T04:17:39.562Z,47.23
2023-05-15T04:18:14.334Z,47.73
2023-05-15T04:18:46.727Z,47.62
2023-05-15T04:19:19.081Z,47.57
2023-05-15T04:19:54.046Z,47.37
2023-05-15T04:20:26.320Z,46.82
2023-05-15T04:20:58.450Z,46.89
2023-05-15T04:21:30.682Z,46.18
2023-05-15T04:22:05.380Z,46.49
2023-05-15T04:22:37.572Z,46.42
2023-05-15T04:23:09.730Z,46.37
2023-05-15T04:23:44.414Z,46.01
2023-05-15T04:24:16.647Z,45.00
2023-05-15T04:24:48.770Z,44.84
2023-05-15T04:25:24.603Z,44.65
2023-05-15T04:25:57.147Z,44.35
2023-05-15T04:26:29.311Z,44.07
2023-05-15T04:27:04.521Z,43.94
2023-05-15T04:27:36.842Z,43.37
2023-05-15T04:28:08.962Z,43.88
2023-05-15T04:28:52.518Z,43.22
2023-05-15T04:29:37.446Z,42.97
2023-05-15T04:30:13.712Z,42.77
2023-05-15T04:30:46.206Z,43.21
2023-05-15T04:31:18.670Z,43.26
2023-05-15T04:31:53.601Z,43.38
2023-05-15T04:32:25.772Z,43.63
2023-05-15T04:33:00.556Z,43.06
2023-05-15T04:33:32.763Z,42.82
2023-05-15T04:34:05.333Z,42.24
2023-05-15T04:34:41.194Z,41.45
2023-05-15T04:35:14.372Z,41.26
2023-05-15T04:35:48.281Z,41.26
2023-05-15T04:36:21.101Z,41.57
2023-05-15T04:36:55.941Z,40.62
2023-05-15T04:37:28.215Z,40.72
2023-05-15T04:38:00.350Z,40.48
2023-05-15T04:38:35.345Z,40.33
2023-05-15T04:39:07.497Z,39.61
2023-05-15T04:39:39.735Z,39.66
2023-05-15T04:40:16.620Z,39.94
2023-05-15T04:40:49.060Z,39.75
2023-05-15T04:41:21.207Z,40.01
2023-05-15T04:41:56.017Z,39.65
2023-05-15T04:42:29.024Z,40.13
2023-05-15T04:43:03.152Z,39.95
2023-05-15T04:43:38.815Z,40.26
2023-05-15T04:44:11.590Z,40.19
2023-05-15T04:44:46.879Z,39.82
2023-05-15T04:45:21.862Z,39.96
2023-05-15T04:45:54.126Z,40.03
2023-05-15T04:46:26.673Z,40.22
2023-05-15T04:47:01.447Z,40.18
2023-05-15T04:47:33.668Z,39.94
2023-05-15T04:48:06.793Z,40.04
2023-05-15T04:48:41.620Z,39.34
2023-05-15T04:49:13.788Z,39.18
2023-05-15T04:49:47.939Z,39.02
2023-05-15T04:50:23.089Z,38.84
2023-05-15T04:50:55.488Z,38.75
2023-05-15T04:51:27.628Z,38.63
2023-05-15T04:52:02.346Z,38.49
2023-05-15T04:52:34.456Z,38.10
2023-05-15T04:53:06.721Z,37.78
2023-05-15T04:53:41.499Z,37.90
2023-05-15T04:54:13.675Z,37.73
2023-05-15T04:54:46.787Z,37.85
2023-05-15T04:55:21.606Z,37.85
2023-05-15T04:55:53.857Z,37.28
2023-05-15T04:56:26.024Z,37.12
2023-05-15T04:57:00.798Z,37.28
2023-05-15T04:57:32.983Z,37.42
2023-05-15T04:58:05.170Z,37.35
2023-05-15T04:58:39.980Z,36.82
2023-05-15T04:59:13.576Z,36.89
2023-05-15T04:59:48.277Z,36.88
2023-05-15T05:00:23.071Z,36.90
2023-05-15T05:00:55.251Z,36.79
2023-05-15T05:01:27.438Z,37.26
2023-05-15T05:02:02.402Z,37.41
2023-05-15T05:02:34.576Z,37.66
2023-05-15T05:03:09.366Z,38.03
2023-05-15T05:03:41.615Z,38.15
2023-05-15T05:04:14.987Z,38.62
2023-05-15T05:04:49.917Z,38.45
2023-05-15T05:05:22.292Z,38.81
2023-05-15T05:05:54.610Z,38.69
2023-05-15T05:06:30.440Z,38.25
2023-05-15T05:07:05.904Z,38.11
2023-05-15T05:07:38.082Z,38.14
2023-05-15T05:08:12.786Z,38.24
2023-05-15T05:08:44.914Z,38.50
2023-05-15T05:09:19.536Z,38.27
2023-05-15T05:09:54.275Z,38.79
2023-05-15T05:10:26.598Z,39.04
2023-05-15T05:10:58.732Z,38.74
2023-05-15T05:11:33.501Z,38.75
2023-05-15T05:12:06.734Z,38.85
2023-05-15T05:12:38.941Z,39.08
2023-05-15T05:13:13.799Z,38.97
2023-05-15T05:13:46.001Z,38.58
2023-05-15T05:14:18.154Z,38.71
2023-05-15T05:14:56.606Z,39.03
2023-05-15T05:15:28.836Z,38.80
2023-05-15T05:16:01.120Z,38.49
2023-05-15T05:16:36.003Z,38.81
2023-05-15T05:17:08.417Z,38.64
2023-05-15T05:17:43.160Z,38.46
2023-05-15T05:18:15.952Z,37.85
2023-05-15T05:18:48.217Z,37.86
2023-05-15T05:19:23.081Z,38.12
2023-05-15T05:19:55.253Z,38.02
2023-05-15T05:20:29.958Z,37.68
2023-05-15T05:21:02.372Z,37.31
2023-05-15T05:21:34.659Z,37.69
2023-05-15T05:22:09.502Z,37.56
2023-05-15T05:22:42.654Z,37.74
2023-05-15T05:23:15.328Z,37.65
2023-05-15T05:23:50.095Z,38.20
2023-05-15T05:24:22.313Z,37.98
2023-05-15T05:24:57.029Z,38.03
2023-05-15T05:25:29.176Z,38.06
2023-05-15T05:26:01.850Z,39.08
2023-05-15T05:26:37.272Z,38.73
2023-05-15T05:27:09.535Z,39.38
2023-05-15T05:27:41.723Z,39.43
2023-05-15T05:28:16.471Z,39.09
2023-05-15T05:28:48.735Z,39.24
2023-05-15T05:29:20.890Z,39.78
2023-05-15T05:29:58.241Z,39.78
2023-05-15T05:30:30.398Z,39.64
2023-05-15T05:31:03.316Z,40.02
2023-05-15T05:31:38.145Z,39.92
2023-05-15T05:32:10.355Z,39.91
2023-05-15T05:32:42.972Z,40.19
2023-05-15T05:33:18.140Z,40.58
2023-05-15T05:33:51.546Z,40.50
2023-05-15T05:34:23.743Z,40.46
2023-05-15T05:34:58.458Z,40.33
2023-05-15T05:35:30.842Z,40.57
2023-05-15T05:36:02.979Z,40.49
2023-05-15T05:36:37.682Z,40.80
2023-05-15T05:37:09.929Z,40.60
2023-05-15T05:37:42.086Z,40.34
2023-05-15T05:38:16.878Z,40.61
2023-05-15T05:38:49.032Z,40.36
2023-05-15T05:39:21.456Z,40.68
2023-05-15T05:39:56.286Z,40.73
2023-05-15T05:40:28.425Z,40.82
2023-05-15T05:41:01.570Z,40.77
2023-05-15T05:41:36.304Z,41.14
2023-05-15T05:42:08.487Z,40.90
2023-05-15T05:42:44.536Z,41.36
2023-05-15T05:43:16.686Z,40.55
2023-05-15T05:43:48.890Z,40.54
2023-05-15T05:44:23.677Z,40.10
2023-05-15T05:44:58.642Z,40.08
2023-05-15T05:45:31.297Z,40.02
2023-05-15T05:46:06.199Z,40.43
2023-05-15T05:46:38.650Z,40.40
2023-05-15T05:47:10.915Z,40.21
2023-05-15T05:47:45.735Z,40.96
2023-05-15T05:48:18.271Z,41.18
2023-05-15T05:48:50.745Z,40.77
2023-05-15T05:49:25.687Z,40.52
2023-05-15T05:49:58.061Z,40.35
2023-05-15T05:50:30.262Z,40.29
2023-05-15T05:51:05.281Z,40.18
2023-05-15T05:51:37.642Z,40.09
2023-05-15T05:52:10.210Z,40.11
2023-05-15T05:52:45.032Z,40.49
2023-05-15T05:53:17.176Z,40.40
2023-05-15T05:53:49.293Z,40.51
2023-05-15T05:54:23.977Z,40.50
2023-05-15T05:54:56.157Z,40.80
2023-05-15T05:55:28.356Z,40.80
2023-05-15T05:56:03.411Z,40.35
2023-05-15T05:56:35.660Z,40.16
2023-05-15T05:57:07.898Z,40.86
2023-05-15T05:57:42.810Z,40.68
2023-05-15T05:58:24.989Z,40.98
2023-05-15T05:59:02.289Z,40.67
2023-05-15T05:59:36.008Z,40.94
2023-05-15T06:00:12.725Z,40.88
2023-05-15T06:00:47.868Z,40.33
2023-05-15T06:01:20.102Z,40.59
2023-05-15T06:01:52.436Z,40.02
2023-05-15T06:02:27.602Z,39.86
2023-05-15T06:03:00.603Z,39.79
2023-05-15T06:03:34.109Z,40.23
2023-05-15T06:04:09.045Z,39.95
2023-05-15T06:04:41.389Z,39.81
2023-05-15T06:05:13.729Z,39.86
2023-05-15T06:05:48.798Z,39.54
2023-05-15T06:06:20.994Z,39.87
2023-05-15T06:06:53.959Z,39.73
2023-05-15T06:07:28.730Z,39.59
2023-05-15T06:08:04.232Z,39.47
2023-05-15T06:08:36.472Z,39.49
2023-05-15T06:09:11.273Z,39.91
2023-05-15T06:09:43.632Z,39.73
2023-05-15T06:10:16.087Z,39.40
2023-05-15T06:10:51.114Z,39.37
2023-05-15T06:11:25.156Z,39.79
2023-05-15T06:11:57.828Z,39.50
2023-05-15T06:12:32.667Z,39.97
2023-05-15T06:13:04.811Z,39.84
2023-05-15T06:13:37.120Z,39.83
2023-05-15T06:14:11.877Z,39.63
2023-05-15T06:14:44.216Z,39.67
2023-05-15T06:15:19.198Z,39.27
2023-05-15T06:15:54.512Z,39.41
2023-05-15T06:16:26.945Z,39.55
2023-05-15T06:16:59.108Z,39.29
2023-05-15T06:17:33.928Z,39.18
2023-05-15T06:18:06.390Z,39.51
2023-05-15T06:18:38.573Z,39.01
2023-05-15T06:19:13.330Z,39.16
2023-05-15T06:19:45.470Z,39.08
2023-05-15T06:20:18.176Z,39.11
2023-05-15T06:20:53.605Z,38.89
2023-05-15T06:21:25.718Z,38.45
2023-05-15T06:21:57.861Z,38.31
2023-05-15T06:22:33.215Z,38.44
2023-05-15T06:23:05.674Z,38.70
2023-05-15T06:23:37.914Z,38.45
2023-05-15T06:24:12.624Z,38.08
2023-05-15T06:24:44.793Z,38.13
2023-05-15T06:25:16.979Z,37.63
2023-05-15T06:25:51.813Z,38.03
2023-05-15T06:26:24.257Z,37.57
2023-05-15T06:26:56.850Z,37.76
2023-05-15T06:27:31.829Z,37.89
2023-05-15T06:28:04.411Z,38.26
2023-05-15T06:28:39.239Z,37.76
2023-05-15T06:29:11.528Z,37.73
2023-05-15T06:29:43.688Z,38.00
2023-05-15T06:30:21.332Z,37.88
2023-05-15T06:30:53.591Z,37.33
2023-05-15T06:31:26.107Z,37.47
2023-05-15T06:32:00.957Z,37.02
2023-05-15T06:32:34.539Z,37.45
2023-05-15T06:33:09.515Z,37.30
2023-05-15T06:33:41.741Z,37.36
2023-05-15T06:34:16.646Z,37.33
2023-05-15T06:34:48.858Z,36.72
2023-05-15T06:35:24.237Z,36.84
2023-05-15T06:35:56.590Z,37.56
2023-05-15T06:36:31.493Z,37.58
2023-05-15T06:37:03.814Z,37.15
2023-05-15T06:37:36.872Z,36.52
2023-05-15T06:38:11.595Z,36.65
2023-05-15T06:38:43.704Z,36.36
2023-05-15T06:39:18.486Z,36.29
2023-05-15T06:39:50.795Z,36.10
2023-05-15T06:40:23.357Z,35.55
2023-05-15T06:40:58.278Z,35.52
2023-05-15T06:41:30.465Z,36.03
2023-05-15T06:42:02.712Z,36.58
2023-05-15T06:42:37.892Z,36.39
2023-05-15T06:43:10.004Z,36.44
2023-05-15T06:43:42.130Z,36.25
2023-05-15T06:44:16.839Z,35.69
2023-05-15T06:44:49.815Z,34.99
2023-05-15T06:45:27.752Z,35.04
2023-05-15T06:46:00.182Z,35.15
2023-05-15T06:46:32.670Z,34.73
2023-05-15T06:47:08.332Z,34.13
2023-05-15T06:47:40.708Z,34.06
2023-05-15T06:48:15.558Z,33.73
2023-05-15T06:48:47.809Z,33.74
2023-05-15T06:49:19.994Z,33.19
2023-05-15T06:49:56.899Z,32.89
2023-05-15T06:50:29.143Z,33.32
2023-05-15T06:51:01.395Z,33.25
2023-05-15T06:51:36.202Z,32.91
2023-05-15T06:52:08.493Z,33.08
2023-05-15T06:52:40.655Z,33.52
2023-05-15T06:53:15.387Z,33.77
2023-05-15T06:53:47.596Z,34.28
2023-05-15T06:54:19.721Z,33.51
2023-05-15T06:54:54.851Z,33.69
2023-05-15T06:55:27.168Z,33.58
2023-05-15T06:55:59.570Z,32.99
2023-05-15T06:56:34.433Z,32.55
2023-05-15T06:57:06.735Z,32.55
2023-05-15T06:57:41.453Z,32.54
2023-05-15T06:58:13.768Z,32.85
2023-05-15T06:58:48.541Z,32.96
2023-05-15T06:59:20.780Z,32.69
2023-05-15T06:59:53.029Z,32.79
2023-05-15T07:00:30.649Z,32.94
2023-05-15T07:01:04.138Z,32.47
2023-05-15T07:01:36.404Z,32.48
2023-05-15T07:02:11.335Z,32.41
2023-05-15T07:02:44.108Z,32.53
2023-05-15T07:03:16.901Z,32.72
2023-05-15T07:03:51.633Z,33.25
2023-05-15T07:04:23.830Z,33.28
2023-05-15T07:04:58.680Z,32.66
2023-05-15T07:05:31.084Z,32.40
2023-05-15T07:06:03.390Z,32.35
2023-05-15T07:06:38.112Z,32.49
2023-05-15T07:07:10.385Z,32.50
2023-05-15T07:07:46.093Z,32.07
2023-05-15T07:08:18.305Z,32.75
2023-05-15T07:08:50.492Z,32.21
2023-05-15T07:09:25.266Z,32.28
2023-05-15T07:09:57.409Z,32.12
2023-05-15T07:10:29.631Z,32.73
2023-05-15T07:11:04.314Z,32.84
2023-05-15T07:11:39.001Z,32.91
2023-05-15T07:12:13.774Z,33.25
2023-05-15T07:12:46.222Z,32.72
2023-05-15T07:13:19.077Z,33.32
2023-05-15T07:13:54.504Z,33.55
2023-05-15T07:14:26.659Z,33.04
2023-05-15T07:14:58.848Z,33.33
2023-05-15T07:15:36.145Z,33.09
2023-05-15T07:16:08.415Z,33.20
2023-05-15T07:16:40.966Z,33.29
2023-05-15T07:17:16.393Z,33.12
2023-05-15T07:17:48.712Z,32.85
2023-05-15T07:18:20.865Z,33.06
2023-05-15T07:18:55.756Z,32.30
2023-05-15T07:19:27.955Z,32.37
2023-05-15T07:20:00.606Z,32.30
2023-05-15T07:20:35.494Z,32.22
2023-05-15T07:21:07.842Z,31.90
2023-05-15T07:21:40.787Z,31.87
2023-05-15T07:22:15.542Z,31.52